sensor_id;sensor_type;location;lat;lon;timestamp;pressure;altitude;pressure_sealevel;temperature;humidity
18569;BME280;14780;48.316;-1.050;2023-04-09T00:01:08;99587.19;;;20.74;37.05
18569;BME280;14780;48.316;-1.050;2023-04-09T00:03:53;99583.88;;;20.72;37.20
18569;BME280;14780;48.316;-1.050;2023-04-09T00:06:38;99588.53;;;20.71;37.07
18569;BME280;14780;48.316;-1.050;2023-04-09T00:09:24;99587.69;;;20.71;37.12
18569;BME280;14780;48.316;-1.050;2023-04-09T00:12:09;99588.75;;;20.70;37.24
18569;BME280;14780;48.316;-1.050;2023-04-09T00:14:54;99591.69;;;20.68;37.16
18569;BME280;14780;48.316;-1.050;2023-04-09T00:17:39;99593.59;;;20.68;37.21
18569;BME280;14780;48.316;-1.050;2023-04-09T00:20:24;99588.16;;;20.68;37.25
18569;BME280;14780;48.316;-1.050;2023-04-09T00:23:09;99586.25;;;20.68;37.33
18569;BME280;14780;48.316;-1.050;2023-04-09T00:25:54;99586.50;;;20.67;37.28
18569;BME280;14780;48.316;-1.050;2023-04-09T00:28:38;99585.91;;;20.65;37.21
18569;BME280;14780;48.316;-1.050;2023-04-09T00:31:23;99582.38;;;20.64;37.23
18569;BME280;14780;48.316;-1.050;2023-04-09T00:34:07;99577.97;;;20.63;37.22
18569;BME280;14780;48.316;-1.050;2023-04-09T00:36:52;99573.63;;;20.62;37.37
18569;BME280;14780;48.316;-1.050;2023-04-09T00:39:37;99573.88;;;20.61;37.36
18569;BME280;14780;48.316;-1.050;2023-04-09T00:42:21;99564.66;;;20.62;37.36
18569;BME280;14780;48.316;-1.050;2023-04-09T00:45:07;99561.31;;;20.60;37.32
18569;BME280;14780;48.316;-1.050;2023-04-09T00:47:52;99558.59;;;20.60;37.36
18569;BME280;14780;48.316;-1.050;2023-04-09T00:50:37;99558.59;;;20.60;37.52
18569;BME280;14780;48.316;-1.050;2023-04-09T00:53:22;99551.53;;;20.59;37.47
18569;BME280;14780;48.316;-1.050;2023-04-09T00:56:07;99552.59;;;20.58;37.42
18569;BME280;14780;48.316;-1.050;2023-04-09T00:58:52;99557.22;;;20.57;37.37
18569;BME280;14780;48.316;-1.050;2023-04-09T01:01:37;99548.22;;;20.57;37.41
18569;BME280;14780;48.316;-1.050;2023-04-09T01:04:22;99540.28;;;20.55;37.47
18569;BME280;14780;48.316;-1.050;2023-04-09T01:13:35;99537.84;;;20.54;37.37
18569;BME280;14780;48.316;-1.050;2023-04-09T01:16:22;99535.34;;;20.52;37.41
18569;BME280;14780;48.316;-1.050;2023-04-09T01:20:21;99539.94;;;20.52;37.50
18569;BME280;14780;48.316;-1.050;2023-04-09T01:29:06;99526.28;;;20.47;37.63
18569;BME280;14780;48.316;-1.050;2023-04-09T01:31:53;99528.16;;;20.46;37.62
18569;BME280;14780;48.316;-1.050;2023-04-09T01:34:40;99526.28;;;20.47;37.77
18569;BME280;14780;48.316;-1.050;2023-04-09T01:37:25;99534.66;;;20.45;37.66
18569;BME280;14780;48.316;-1.050;2023-04-09T01:40:11;99522.13;;;20.44;37.61
18569;BME280;14780;48.316;-1.050;2023-04-09T01:42:56;99524.63;;;20.46;37.65
18569;BME280;14780;48.316;-1.050;2023-04-09T01:45:43;99526.50;;;20.45;37.62
18569;BME280;14780;48.316;-1.050;2023-04-09T01:48:29;99526.72;;;20.44;37.59
18569;BME280;14780;48.316;-1.050;2023-04-09T01:51:15;99513.41;;;20.42;37.57
18569;BME280;14780;48.316;-1.050;2023-04-09T01:54:01;99518.56;;;20.44;37.60
18569;BME280;14780;48.316;-1.050;2023-04-09T01:56:48;99521.56;;;20.42;37.71
18569;BME280;14780;48.316;-1.050;2023-04-09T01:59:32;99516.34;;;20.41;37.75
18569;BME280;14780;48.316;-1.050;2023-04-09T02:02:23;99516.34;;;20.41;37.69
18569;BME280;14780;48.316;-1.050;2023-04-09T02:05:11;99522.59;;;20.41;37.67
18569;BME280;14780;48.316;-1.050;2023-04-09T02:08:01;99524.72;;;20.39;37.78
18569;BME280;14780;48.316;-1.050;2023-04-09T02:10:53;99519.28;;;20.39;37.68
18569;BME280;14780;48.316;-1.050;2023-04-09T02:13:40;99518.50;;;20.39;37.70
18569;BME280;14780;48.316;-1.050;2023-04-09T02:16:26;99523.94;;;20.39;37.68
18569;BME280;14780;48.316;-1.050;2023-04-09T02:19:11;99523.31;;;20.37;37.74
18569;BME280;14780;48.316;-1.050;2023-04-09T02:21:56;99518.94;;;20.36;37.84
18569;BME280;14780;48.316;-1.050;2023-04-09T02:24:41;99524.38;;;20.36;37.72
18569;BME280;14780;48.316;-1.050;2023-04-09T02:27:26;99524.38;;;20.36;37.87
18569;BME280;14780;48.316;-1.050;2023-04-09T02:30:11;99522.75;;;20.35;37.80
18569;BME280;14780;48.316;-1.050;2023-04-09T02:32:55;99515.66;;;20.34;37.82
18569;BME280;14780;48.316;-1.050;2023-04-09T02:35:40;99520.25;;;20.33;37.80
18569;BME280;14780;48.316;-1.050;2023-04-09T02:38:24;99511.53;;;20.31;37.84
18569;BME280;14780;48.316;-1.050;2023-04-09T02:41:09;99518.84;;;20.31;37.92
18569;BME280;14780;48.316;-1.050;2023-04-09T02:43:54;99518.84;;;20.31;37.84
18569;BME280;14780;48.316;-1.050;2023-04-09T02:46:41;99506.91;;;20.32;37.90
18569;BME280;14780;48.316;-1.050;2023-04-09T02:49:26;99515.31;;;20.30;38.01
18569;BME280;14780;48.316;-1.050;2023-04-09T02:52:10;99506.31;;;20.30;38.00
18569;BME280;14780;48.316;-1.050;2023-04-09T02:54:55;99513.41;;;20.31;38.04
18569;BME280;14780;48.316;-1.050;2023-04-09T02:57:41;99509.03;;;20.30;38.01
18569;BME280;14780;48.316;-1.050;2023-04-09T03:00:25;99506.56;;;20.28;37.97
18569;BME280;14780;48.316;-1.050;2023-04-09T03:03:10;99505.72;;;20.28;37.98
18569;BME280;14780;48.316;-1.050;2023-04-09T03:05:55;99508.44;;;20.28;37.96
18569;BME280;14780;48.316;-1.050;2023-04-09T03:08:39;99504.09;;;20.27;38.05
18569;BME280;14780;48.316;-1.050;2023-04-09T03:11:24;99503.50;;;20.25;38.12
18569;BME280;14780;48.316;-1.050;2023-04-09T03:14:09;99496.16;;;20.25;38.05
18569;BME280;14780;48.316;-1.050;2023-04-09T03:16:53;99499.94;;;20.24;38.05
18569;BME280;14780;48.316;-1.050;2023-04-09T03:19:38;99508.31;;;20.23;38.06
18569;BME280;14780;48.316;-1.050;2023-04-09T03:22:23;99498.31;;;20.23;38.08
18569;BME280;14780;48.316;-1.050;2023-04-09T03:25:08;99502.91;;;20.23;38.11
18569;BME280;14780;48.316;-1.050;2023-04-09T03:27:53;99493.31;;;20.20;38.11
18569;BME280;14780;48.316;-1.050;2023-04-09T03:30:37;99495.00;;;20.21;38.10
18569;BME280;14780;48.316;-1.050;2023-04-09T03:33:22;99495.47;;;20.18;38.16
18569;BME280;14780;48.316;-1.050;2023-04-09T03:36:07;99492.50;;;20.20;38.21
18569;BME280;14780;48.316;-1.050;2023-04-09T03:38:52;99489.22;;;20.18;38.18
18569;BME280;14780;48.316;-1.050;2023-04-09T03:41:37;99502.53;;;20.19;38.23
18569;BME280;14780;48.316;-1.050;2023-04-09T03:44:22;99486.72;;;20.16;38.28
18569;BME280;14780;48.316;-1.050;2023-04-09T03:47:07;99490.25;;;20.17;38.21
18569;BME280;14780;48.316;-1.050;2023-04-09T03:49:52;99490.25;;;20.17;38.24
18569;BME280;14780;48.316;-1.050;2023-04-09T03:52:36;99485.09;;;20.15;38.27
18569;BME280;14780;48.316;-1.050;2023-04-09T03:55:21;99482.59;;;20.14;38.23
18569;BME280;14780;48.316;-1.050;2023-04-09T03:58:06;99485.31;;;20.14;38.29
18569;BME280;14780;48.316;-1.050;2023-04-09T04:00:51;99490.75;;;20.14;38.13
18569;BME280;14780;48.316;-1.050;2023-04-09T04:03:35;99482.59;;;20.14;38.21
18569;BME280;14780;48.316;-1.050;2023-04-09T04:06:20;99479.31;;;20.12;38.14
18569;BME280;14780;48.316;-1.050;2023-04-09T04:09:05;99482.81;;;20.12;38.13
18569;BME280;14780;48.316;-1.050;2023-04-09T04:11:49;99493.97;;;20.11;38.24
18569;BME280;14780;48.316;-1.050;2023-04-09T04:14:35;99487.91;;;20.09;38.19
18569;BME280;14780;48.316;-1.050;2023-04-09T04:17:19;99486.03;;;20.09;38.30
18569;BME280;14780;48.316;-1.050;2023-04-09T04:20:05;99486.25;;;20.08;38.28
18569;BME280;14780;48.316;-1.050;2023-04-09T04:22:49;99495.25;;;20.08;38.28
18569;BME280;14780;48.316;-1.050;2023-04-09T04:25:34;99488.97;;;20.08;38.31
18569;BME280;14780;48.316;-1.050;2023-04-09T04:28:19;99498.19;;;20.07;38.23
18569;BME280;14780;48.316;-1.050;2023-04-09T04:31:12;99498.19;;;20.07;38.34
18569;BME280;14780;48.316;-1.050;2023-04-09T04:33:57;99499.25;;;20.06;38.43
18569;BME280;14780;48.316;-1.050;2023-04-09T04:36:42;99491.13;;;20.06;38.37
18569;BME280;14780;48.316;-1.050;2023-04-09T04:39:26;99487.78;;;20.04;38.42
18569;BME280;14780;48.316;-1.050;2023-04-09T04:42:11;99490.50;;;20.04;38.36
18569;BME280;14780;48.316;-1.050;2023-04-09T04:44:55;99491.56;;;20.03;38.38
18569;BME280;14780;48.316;-1.050;2023-04-09T04:47:40;99489.91;;;20.02;38.30
18569;BME280;14780;48.316;-1.050;2023-04-09T04:50:25;99497.81;;;20.03;38.41
18569;BME280;14780;48.316;-1.050;2023-04-09T04:53:10;99494.50;;;20.01;38.45
18569;BME280;14780;48.316;-1.050;2023-04-09T04:55:55;99495.59;;;20.00;38.33
18569;BME280;14780;48.316;-1.050;2023-04-09T04:58:40;99489.31;;;20.00;38.33
18569;BME280;14780;48.316;-1.050;2023-04-09T05:01:25;99490.38;;;19.99;38.33
18569;BME280;14780;48.316;-1.050;2023-04-09T05:04:09;99484.09;;;19.98;38.37
18569;BME280;14780;48.316;-1.050;2023-04-09T05:06:55;99484.94;;;19.99;38.32
18569;BME280;14780;48.316;-1.050;2023-04-09T05:09:39;99480.00;;;19.96;38.50
18569;BME280;14780;48.316;-1.050;2023-04-09T05:12:26;99478.31;;;19.95;38.52
18569;BME280;14780;48.316;-1.050;2023-04-09T05:15:11;99473.50;;;19.97;38.44
18569;BME280;14780;48.316;-1.050;2023-04-09T05:17:56;99483.53;;;19.96;38.47
18569;BME280;14780;48.316;-1.050;2023-04-09T05:20:41;99491.91;;;19.95;38.58
18569;BME280;14780;48.316;-1.050;2023-04-09T05:23:25;99491.91;;;19.95;38.47
18569;BME280;14780;48.316;-1.050;2023-04-09T05:26:10;99491.31;;;19.93;38.44
18569;BME280;14780;48.316;-1.050;2023-04-09T05:28:55;99500.03;;;19.95;38.46
18569;BME280;14780;48.316;-1.050;2023-04-09T05:31:40;99503.03;;;19.93;38.58
18569;BME280;14780;48.316;-1.050;2023-04-09T05:34:26;99502.19;;;19.93;38.49
18569;BME280;14780;48.316;-1.050;2023-04-09T05:37:11;99500.53;;;19.92;38.60
18569;BME280;14780;48.316;-1.050;2023-04-09T05:39:56;99507.84;;;19.91;38.53
18569;BME280;14780;48.316;-1.050;2023-04-09T05:42:40;99499.97;;;19.90;38.68
18569;BME280;14780;48.316;-1.050;2023-04-09T05:45:25;99510.56;;;19.91;38.61
18569;BME280;14780;48.316;-1.050;2023-04-09T05:48:12;99509.16;;;19.89;38.64
18569;BME280;14780;48.316;-1.050;2023-04-09T05:50:56;99513.53;;;19.90;38.54
18569;BME280;14780;48.316;-1.050;2023-04-09T05:53:41;99511.88;;;19.89;38.74
18569;BME280;14780;48.316;-1.050;2023-04-09T05:56:26;99511.88;;;19.89;38.57
18569;BME280;14780;48.316;-1.050;2023-04-09T05:59:11;99508.56;;;19.87;38.67
18569;BME280;14780;48.316;-1.050;2023-04-09T06:01:56;99514.59;;;19.89;38.73
18569;BME280;14780;48.316;-1.050;2023-04-09T06:04:40;99517.31;;;19.89;38.49
18569;BME280;14780;48.316;-1.050;2023-04-09T06:07:25;99511.28;;;19.87;38.68
18569;BME280;14780;48.316;-1.050;2023-04-09T06:10:09;99514.59;;;19.89;38.59
18569;BME280;14780;48.316;-1.050;2023-04-09T06:12:54;99511.03;;;19.88;38.81
18569;BME280;14780;48.316;-1.050;2023-04-09T06:15:39;99516.25;;;19.90;38.67
18569;BME280;14780;48.316;-1.050;2023-04-09T06:18:24;99517.31;;;19.89;38.72
18569;BME280;14780;48.316;-1.050;2023-04-09T06:21:09;99515.41;;;19.89;38.60
18569;BME280;14780;48.316;-1.050;2023-04-09T06:23:54;99508.56;;;19.87;38.71
18569;BME280;14780;48.316;-1.050;2023-04-09T06:26:38;99507.75;;;19.86;38.73
18569;BME280;14780;48.316;-1.050;2023-04-09T06:29:23;99507.50;;;19.88;38.60
18569;BME280;14780;48.316;-1.050;2023-04-09T06:32:09;99511.03;;;19.88;38.62
18569;BME280;14780;48.316;-1.050;2023-04-09T06:34:54;99513.97;;;19.87;38.65
18569;BME280;14780;48.316;-1.050;2023-04-09T06:37:39;99517.78;;;19.86;38.61
18569;BME280;14780;48.316;-1.050;2023-04-09T06:40:24;99520.47;;;19.86;38.70
18569;BME280;14780;48.316;-1.050;2023-04-09T06:43:10;99525.34;;;19.84;38.63
18569;BME280;14780;48.316;-1.050;2023-04-09T06:45:54;99519.91;;;19.84;38.76
18569;BME280;14780;48.316;-1.050;2023-04-09T06:48:39;99520.72;;;19.84;38.72
18569;BME280;14780;48.316;-1.050;2023-04-09T06:51:26;99521.56;;;19.85;38.70
18569;BME280;14780;48.316;-1.050;2023-04-09T06:54:10;99516.13;;;19.85;38.75
18569;BME280;14780;48.316;-1.050;2023-04-09T06:56:55;99514.47;;;19.84;38.69
18569;BME280;14780;48.316;-1.050;2023-04-09T06:59:40;99503.59;;;19.84;38.81
18569;BME280;14780;48.316;-1.050;2023-04-09T07:02:24;99503.84;;;19.82;38.82
18569;BME280;14780;48.316;-1.050;2023-04-09T07:05:10;99503.59;;;19.84;38.67
18569;BME280;14780;48.316;-1.050;2023-04-09T07:07:54;99512.81;;;19.83;38.72
18569;BME280;14780;48.316;-1.050;2023-04-09T07:10:39;99517.41;;;19.82;38.61
18569;BME280;14780;48.316;-1.050;2023-04-09T07:13:24;99520.13;;;19.82;38.72
18569;BME280;14780;48.316;-1.050;2023-04-09T07:16:09;99514.47;;;19.84;38.72
18569;BME280;14780;48.316;-1.050;2023-04-09T07:18:54;99512.81;;;19.83;38.81
18569;BME280;14780;48.316;-1.050;2023-04-09T07:21:39;99505.47;;;19.83;38.77
18569;BME280;14780;48.316;-1.050;2023-04-09T07:24:23;99510.91;;;19.83;38.70
18569;BME280;14780;48.316;-1.050;2023-04-09T07:27:08;99522.63;;;19.84;38.75
18569;BME280;14780;48.316;-1.050;2023-04-09T07:29:56;99522.63;;;19.84;38.76
18569;BME280;14780;48.316;-1.050;2023-04-09T07:32:40;99522.63;;;19.84;38.75
18569;BME280;14780;48.316;-1.050;2023-04-09T07:35:25;99532.41;;;19.85;38.79
18569;BME280;14780;48.316;-1.050;2023-04-09T07:38:09;99537.84;;;19.85;38.75
18569;BME280;14780;48.316;-1.050;2023-04-09T07:40:54;99537.00;;;19.84;38.74
18569;BME280;14780;48.316;-1.050;2023-04-09T07:43:40;99531.34;;;19.86;38.75
18569;BME280;14780;48.316;-1.050;2023-04-09T07:46:25;99532.19;;;19.86;38.76
18569;BME280;14780;48.316;-1.050;2023-04-09T07:49:09;99533.00;;;19.87;38.72
18569;BME280;14780;48.316;-1.050;2023-04-09T07:51:54;99530.28;;;19.87;38.65
18569;BME280;14780;48.316;-1.050;2023-04-09T07:54:39;99524.84;;;19.87;38.64
18569;BME280;14780;48.316;-1.050;2023-04-09T07:57:24;99511.03;;;19.88;38.62
18569;BME280;14780;48.316;-1.050;2023-04-09T08:00:09;99495.81;;;19.87;38.64
18569;BME280;14780;48.316;-1.050;2023-04-09T08:02:54;99505.63;;;19.88;38.66
18569;BME280;14780;48.316;-1.050;2023-04-09T08:05:39;99498.75;;;19.86;38.75
18569;BME280;14780;48.316;-1.050;2023-04-09T08:08:23;99505.63;;;19.88;38.75
18569;BME280;14780;48.316;-1.050;2023-04-09T08:11:08;99507.50;;;19.88;38.65
18569;BME280;14780;48.316;-1.050;2023-04-09T08:13:53;99507.25;;;19.89;38.67
18569;BME280;14780;48.316;-1.050;2023-04-09T08:16:46;99509.75;;;19.91;38.59
18569;BME280;14780;48.316;-1.050;2023-04-09T08:19:30;99501.03;;;19.89;38.75
18569;BME280;14780;48.316;-1.050;2023-04-09T08:22:15;99513.53;;;19.90;38.74
18569;BME280;14780;48.316;-1.050;2023-04-09T08:25:00;99512.69;;;19.89;38.65
18569;BME280;14780;48.316;-1.050;2023-04-09T08:27:45;99518.97;;;19.90;38.81
18569;BME280;14780;48.316;-1.050;2023-04-09T08:30:29;99519.78;;;19.90;38.78
18569;BME280;14780;48.316;-1.050;2023-04-09T08:33:15;99518.97;;;19.90;38.67
18569;BME280;14780;48.316;-1.050;2023-04-09T08:36:00;99516.84;;;19.92;38.72
18569;BME280;14780;48.316;-1.050;2023-04-09T08:38:44;99518.47;;;19.93;38.74
18569;BME280;14780;48.316;-1.050;2023-04-09T08:41:30;99521.41;;;19.91;38.74
18569;BME280;14780;48.316;-1.050;2023-04-09T08:44:15;99526.63;;;19.93;38.75
18569;BME280;14780;48.316;-1.050;2023-04-09T08:47:01;99518.47;;;19.93;38.79
18569;BME280;14780;48.316;-1.050;2023-04-09T08:49:46;99515.75;;;19.93;38.76
18569;BME280;14780;48.316;-1.050;2023-04-09T08:52:34;99517.66;;;19.92;38.69
18569;BME280;14780;48.316;-1.050;2023-04-09T08:55:20;99513.88;;;19.93;38.60
18569;BME280;14780;48.316;-1.050;2023-04-09T08:58:05;99517.41;;;19.94;38.76
18569;BME280;14780;48.316;-1.050;2023-04-09T09:00:53;99523.47;;;19.96;38.80
18569;BME280;14780;48.316;-1.050;2023-04-09T09:04:05;99515.06;;;19.97;38.70
18569;BME280;14780;48.316;-1.050;2023-04-09T09:06:50;99509.88;;;19.96;38.72
18569;BME280;14780;48.316;-1.050;2023-04-09T09:10:01;99507.75;;;19.98;38.68
18569;BME280;14780;48.316;-1.050;2023-04-09T09:12:49;99499.81;;;19.96;38.77
18569;BME280;14780;48.316;-1.050;2023-04-09T09:15:35;99502.31;;;19.98;38.80
18569;BME280;14780;48.316;-1.050;2023-04-09T09:21:24;99499.59;;;19.98;38.78
18569;BME280;14780;48.316;-1.050;2023-04-09T09:24:17;99490.38;;;19.99;38.74
18569;BME280;14780;48.316;-1.050;2023-04-09T09:27:01;99502.88;;;20.00;38.71
18569;BME280;14780;48.316;-1.050;2023-04-09T09:29:46;99492.88;;;20.00;38.69
18569;BME280;14780;48.316;-1.050;2023-04-09T09:32:34;99489.09;;;20.01;38.70
18569;BME280;14780;48.316;-1.050;2023-04-09T09:35:19;99492.59;;;20.02;38.71
18569;BME280;14780;48.316;-1.050;2023-04-09T09:38:04;99487.19;;;20.02;38.74
18569;BME280;14780;48.316;-1.050;2023-04-09T09:40:49;99491.56;;;20.03;38.71
18569;BME280;14780;48.316;-1.050;2023-04-09T09:43:40;99487.34;;;20.07;38.76
18569;BME280;14780;48.316;-1.050;2023-04-09T09:46:33;99481.09;;;20.06;38.81
18569;BME280;14780;48.316;-1.050;2023-04-09T09:49:18;99488.97;;;20.08;38.78
18569;BME280;14780;48.316;-1.050;2023-04-09T09:52:08;99483.53;;;20.08;38.89
18569;BME280;14780;48.316;-1.050;2023-04-09T09:54:54;99486.88;;;20.10;38.84
18569;BME280;14780;48.316;-1.050;2023-04-09T09:57:43;99484.16;;;20.10;38.83
18569;BME280;14780;48.316;-1.050;2023-04-09T10:00:30;99480.94;;;20.13;38.78
18569;BME280;14780;48.316;-1.050;2023-04-09T10:03:21;99480.94;;;20.13;38.86
18569;BME280;14780;48.316;-1.050;2023-04-09T10:06:07;99473.38;;;20.15;38.69
18569;BME280;14780;48.316;-1.050;2023-04-09T10:08:56;99467.94;;;20.15;38.77
18569;BME280;14780;48.316;-1.050;2023-04-09T10:11:42;99466.66;;;20.17;38.70
18569;BME280;14780;48.316;-1.050;2023-04-09T10:14:31;99476.22;;;20.20;38.82
18569;BME280;14780;48.316;-1.050;2023-04-09T10:17:17;99477.03;;;20.20;38.81
18569;BME280;14780;48.316;-1.050;2023-04-09T10:20:25;99481.78;;;20.25;38.76
18569;BME280;14780;48.316;-1.050;2023-04-09T10:23:33;99482.81;;;20.24;38.74
18569;BME280;14780;48.316;-1.050;2023-04-09T10:26:19;99491.56;;;20.26;38.82
18569;BME280;14780;48.316;-1.050;2023-04-09T10:29:10;99487.78;;;20.27;38.84
18569;BME280;14780;48.316;-1.050;2023-04-09T10:32:05;99484.56;;;20.30;38.80
18569;BME280;14780;48.316;-1.050;2023-04-09T10:34:50;99486.22;;;20.31;38.81
18569;BME280;14780;48.316;-1.050;2023-04-09T10:37:35;99479.75;;;20.32;38.72
18569;BME280;14780;48.316;-1.050;2023-04-09T10:40:20;99485.75;;;20.34;38.82
18569;BME280;14780;48.316;-1.050;2023-04-09T10:43:06;99480.31;;;20.34;38.71
18569;BME280;14780;48.316;-1.050;2023-04-09T10:45:52;99478.75;;;20.38;38.76
18569;BME280;14780;48.316;-1.050;2023-04-09T10:48:40;99475.59;;;20.41;38.73
18569;BME280;14780;48.316;-1.050;2023-04-09T10:51:27;99474.50;;;20.42;38.82
18569;BME280;14780;48.316;-1.050;2023-04-09T10:57:18;99470.25;;;20.46;38.73
18569;BME280;14780;48.316;-1.050;2023-04-09T11:00:04;99470.84;;;20.48;38.75
18569;BME280;14780;48.316;-1.050;2023-04-09T11:03:25;99469.03;;;20.53;38.77
18569;BME280;14780;48.316;-1.050;2023-04-09T11:06:14;99462.31;;;20.56;38.72
18569;BME280;14780;48.316;-1.050;2023-04-09T11:09:03;99466.66;;;20.57;38.75
18569;BME280;14780;48.316;-1.050;2023-04-09T11:11:54;99468.88;;;20.60;38.71
18569;BME280;14780;48.316;-1.050;2023-04-09T11:14:41;99469.50;;;20.62;38.65
18569;BME280;14780;48.316;-1.050;2023-04-09T11:17:25;99460.28;;;20.63;38.66
18569;BME280;14780;48.316;-1.050;2023-04-09T11:20:11;99464.41;;;20.65;38.76
18569;BME280;14780;48.316;-1.050;2023-04-09T11:22:58;99463.09;;;20.68;38.66
18569;BME280;14780;48.316;-1.050;2023-04-09T11:25:48;99468.03;;;20.71;38.74
18569;BME280;14780;48.316;-1.050;2023-04-09T11:28:34;99469.69;;;20.72;38.67
18569;BME280;14780;48.316;-1.050;2023-04-09T11:31:26;99466.22;;;20.76;38.57
18569;BME280;14780;48.316;-1.050;2023-04-09T11:34:12;99462.19;;;20.79;38.66
18569;BME280;14780;48.316;-1.050;2023-04-09T11:36:57;99465.75;;;20.79;38.66
18569;BME280;14780;48.316;-1.050;2023-04-09T11:39:46;99457.69;;;20.84;38.63
18569;BME280;14780;48.316;-1.050;2023-04-09T11:42:31;99454.72;;;20.86;38.63
18569;BME280;14780;48.316;-1.050;2023-04-09T11:45:17;99450.13;;;20.86;38.61
18569;BME280;14780;48.316;-1.050;2023-04-09T11:48:02;99448.81;;;20.89;38.56
18569;BME280;14780;48.316;-1.050;2023-04-09T11:50:47;99446.69;;;20.91;38.49
18569;BME280;14780;48.316;-1.050;2023-04-09T11:53:32;99443.72;;;20.92;38.51
18569;BME280;14780;48.316;-1.050;2023-04-09T11:56:17;99433.16;;;20.96;38.50
18569;BME280;14780;48.316;-1.050;2023-04-09T11:59:02;99430.44;;;20.96;38.34
18569;BME280;14780;48.316;-1.050;2023-04-09T12:01:51;99428.91;;;21.00;38.41
18569;BME280;14780;48.316;-1.050;2023-04-09T12:04:36;99431.38;;;21.01;38.37
18569;BME280;14780;48.316;-1.050;2023-04-09T12:07:20;99440.97;;;21.04;38.29
18569;BME280;14780;48.316;-1.050;2023-04-09T12:10:07;99435.00;;;21.07;38.42
18569;BME280;14780;48.316;-1.050;2023-04-09T12:12:53;99435.34;;;21.10;38.34
18569;BME280;14780;48.316;-1.050;2023-04-09T12:15:40;99430.25;;;21.14;38.39
18569;BME280;14780;48.316;-1.050;2023-04-09T12:18:26;99428.09;;;21.16;38.41
18569;BME280;14780;48.316;-1.050;2023-04-09T12:21:11;99418.38;;;21.20;38.40
18569;BME280;14780;48.316;-1.050;2023-04-09T12:23:56;99417.53;;;21.19;38.34
18569;BME280;14780;48.316;-1.050;2023-04-09T12:26:41;99411.94;;;21.26;38.29
18569;BME280;14780;48.316;-1.050;2023-04-09T12:29:26;99413.59;;;21.27;38.35
18569;BME280;14780;48.316;-1.050;2023-04-09T12:32:12;99411.78;;;21.32;38.32
18569;BME280;14780;48.316;-1.050;2023-04-09T12:34:56;99412.09;;;21.36;38.18
18569;BME280;14780;48.316;-1.050;2023-04-09T12:37:42;99412.44;;;21.39;38.23
18569;BME280;14780;48.316;-1.050;2023-04-09T12:40:27;99409.47;;;21.41;38.13
18569;BME280;14780;48.316;-1.050;2023-04-09T12:43:11;99408.72;;;21.45;38.16
18569;BME280;14780;48.316;-1.050;2023-04-09T12:45:56;99407.41;;;21.48;38.15
18569;BME280;14780;48.316;-1.050;2023-04-09T12:48:41;99399.81;;;21.50;38.13
18569;BME280;14780;48.316;-1.050;2023-04-09T12:51:25;99384.88;;;21.52;38.11
18569;BME280;14780;48.316;-1.050;2023-04-09T12:54:10;99389.56;;;21.57;38.11
18569;BME280;14780;48.316;-1.050;2023-04-09T12:56:54;99390.13;;;21.59;38.10
18569;BME280;14780;48.316;-1.050;2023-04-09T12:59:39;99385.25;;;21.61;38.12
18569;BME280;14780;48.316;-1.050;2023-04-09T13:02:24;99389.13;;;21.65;37.98
18569;BME280;14780;48.316;-1.050;2023-04-09T13:05:09;99375.03;;;21.68;37.96
18569;BME280;14780;48.316;-1.050;2023-04-09T13:07:54;99375.63;;;21.70;37.99
18569;BME280;14780;48.316;-1.050;2023-04-09T13:10:39;99378.69;;;21.73;37.88
18569;BME280;14780;48.316;-1.050;2023-04-09T13:13:24;99372.16;;;21.74;37.84
18569;BME280;14780;48.316;-1.050;2023-04-09T13:16:09;99361.03;;;21.76;37.89
18569;BME280;14780;48.316;-1.050;2023-04-09T13:18:54;99359.19;;;21.81;37.89
18569;BME280;14780;48.316;-1.050;2023-04-09T13:21:38;99358.09;;;21.82;37.82
18569;BME280;14780;48.316;-1.050;2023-04-09T13:24:23;99356.78;;;21.85;37.86
18569;BME280;14780;48.316;-1.050;2023-04-09T13:27:07;99356.25;;;21.88;37.81
18569;BME280;14780;48.316;-1.050;2023-04-09T13:29:53;99347.00;;;21.89;37.80
18569;BME280;14780;48.316;-1.050;2023-04-09T13:32:37;99360.13;;;21.92;37.83
18569;BME280;14780;48.316;-1.050;2023-04-09T13:35:22;99357.13;;;21.93;37.75
18569;BME280;14780;48.316;-1.050;2023-04-09T13:38:07;99346.00;;;21.95;37.82
18569;BME280;14780;48.316;-1.050;2023-04-09T13:40:52;99348.22;;;21.98;37.69
18569;BME280;14780;48.316;-1.050;2023-04-09T13:43:36;99345.50;;;21.98;37.67
18569;BME280;14780;48.316;-1.050;2023-04-09T13:46:21;99335.41;;;21.98;37.63
18569;BME280;14780;48.316;-1.050;2023-04-09T13:49:06;99334.09;;;22.01;37.77
18569;BME280;14780;48.316;-1.050;2023-04-09T13:51:51;99338.47;;;22.02;37.60
18569;BME280;14780;48.316;-1.050;2023-04-09T13:54:36;99340.09;;;22.03;37.57
18569;BME280;14780;48.316;-1.050;2023-04-09T13:57:21;99332.75;;;22.03;37.59
18569;BME280;14780;48.316;-1.050;2023-04-09T14:00:07;99336.88;;;22.06;37.62
18569;BME280;14780;48.316;-1.050;2023-04-09T14:02:52;99331.44;;;22.06;37.62
18569;BME280;14780;48.316;-1.050;2023-04-09T14:05:36;99329.50;;;22.06;37.50
18569;BME280;14780;48.316;-1.050;2023-04-09T14:08:21;99330.34;;;22.07;37.46
18569;BME280;14780;48.316;-1.050;2023-04-09T14:11:06;99331.16;;;22.07;37.55
18569;BME280;14780;48.316;-1.050;2023-04-09T14:13:50;99321.94;;;22.08;37.57
18569;BME280;14780;48.316;-1.050;2023-04-09T14:16:35;99324.66;;;22.08;37.44
18569;BME280;14780;48.316;-1.050;2023-04-09T14:19:20;99330.91;;;22.09;37.43
18569;BME280;14780;48.316;-1.050;2023-04-09T14:22:04;99324.38;;;22.10;37.40
18569;BME280;14780;48.316;-1.050;2023-04-09T14:24:50;99316.19;;;22.10;37.41
18569;BME280;14780;48.316;-1.050;2023-04-09T14:27:35;99321.41;;;22.11;37.35
18569;BME280;14780;48.316;-1.050;2023-04-09T14:30:21;99317.59;;;22.12;37.38
18569;BME280;14780;48.316;-1.050;2023-04-09T14:33:06;99321.16;;;22.13;37.38
18569;BME280;14780;48.316;-1.050;2023-04-09T14:35:50;99328.25;;;22.14;37.48
18569;BME280;14780;48.316;-1.050;2023-04-09T14:38:36;99327.41;;;22.13;37.32
18569;BME280;14780;48.316;-1.050;2023-04-09T14:41:21;99326.09;;;22.16;37.37
18569;BME280;14780;48.316;-1.050;2023-04-09T14:44:05;99313.53;;;22.15;37.39
18569;BME280;14780;48.316;-1.050;2023-04-09T14:46:51;99321.47;;;22.16;37.30